sensor_id;sensor_type;location;lat;lon;timestamp;P1;durP1;ratioP1;P2;durP2;ratioP2
60344;SDS011;46188;52.324;8.032;2022-10-16T00:00:56;5.88;;;3.58;;
60344;SDS011;46188;52.324;8.032;2022-10-16T00:03:22;6.22;;;3.88;;
60344;SDS011;46188;52.324;8.032;2022-10-16T00:05:47;5.80;;;3.80;;
60344;SDS011;46188;52.324;8.032;2022-10-16T00:08:13;7.43;;;4.30;;
60344;SDS011;46188;52.324;8.032;2022-10-16T00:10:38;8.60;;;3.90;;
60344;SDS011;46188;52.324;8.032;2022-10-16T00:13:04;6.10;;;4.13;;
60344;SDS011;46188;52.324;8.032;2022-10-16T00:15:30;5.75;;;4.22;;
60344;SDS011;46188;52.324;8.032;2022-10-16T00:18:01;11.18;;;5.57;;
60344;SDS011;46188;52.324;8.032;2022-10-16T00:20:26;7.20;;;4.63;;
60344;SDS011;46188;52.324;8.032;2022-10-16T00:22:52;11.25;;;4.57;;
60344;SDS011;46188;52.324;8.032;2022-10-16T00:25:17;9.30;;;5.57;;
60344;SDS011;46188;52.324;8.032;2022-10-16T00:27:43;8.65;;;4.45;;
60344;SDS011;46188;52.324;8.032;2022-10-16T00:30:08;11.18;;;4.72;;
60344;SDS011;46188;52.324;8.032;2022-10-16T00:32:34;12.32;;;5.30;;
60344;SDS011;46188;52.324;8.032;2022-10-16T00:34:59;9.18;;;5.20;;
60344;SDS011;46188;52.324;8.032;2022-10-16T00:37:25;7.53;;;5.03;;
60344;SDS011;46188;52.324;8.032;2022-10-16T00:39:50;7.63;;;4.72;;
60344;SDS011;46188;52.324;8.032;2022-10-16T00:42:17;9.50;;;5.75;;
60344;SDS011;46188;52.324;8.032;2022-10-16T00:44:47;11.60;;;5.35;;
60344;SDS011;46188;52.324;8.032;2022-10-16T00:47:18;9.48;;;6.13;;
60344;SDS011;46188;52.324;8.032;2022-10-16T00:49:45;9.73;;;5.60;;
60344;SDS011;46188;52.324;8.032;2022-10-16T00:52:11;10.88;;;6.20;;
60344;SDS011;46188;52.324;8.032;2022-10-16T00:54:38;9.20;;;6.05;;
60344;SDS011;46188;52.324;8.032;2022-10-16T00:57:04;10.30;;;5.78;;
60344;SDS011;46188;52.324;8.032;2022-10-16T01:01:59;12.57;;;7.50;;
60344;SDS011;46188;52.324;8.032;2022-10-16T01:04:25;10.80;;;7.68;;
60344;SDS011;46188;52.324;8.032;2022-10-16T01:07:01;13.30;;;7.50;;
60344;SDS011;46188;52.324;8.032;2022-10-16T01:31:49;11.20;;;6.97;;
60344;SDS011;46188;52.324;8.032;2022-10-16T01:34:22;14.15;;;7.38;;
60344;SDS011;46188;52.324;8.032;2022-10-16T01:36:58;9.57;;;7.05;;
60344;SDS011;46188;52.324;8.032;2022-10-16T01:39:30;15.43;;;7.55;;
60344;SDS011;46188;52.324;8.032;2022-10-16T01:42:05;14.45;;;7.32;;
60344;SDS011;46188;52.324;8.032;2022-10-16T01:44:37;19.60;;;8.23;;
60344;SDS011;46188;52.324;8.032;2022-10-16T01:47:05;10.98;;;7.55;;
60344;SDS011;46188;52.324;8.032;2022-10-16T01:49:34;15.07;;;7.88;;
60344;SDS011;46188;52.324;8.032;2022-10-16T01:52:04;10.85;;;6.72;;
60344;SDS011;46188;52.324;8.032;2022-10-16T01:54:34;13.02;;;7.47;;
60344;SDS011;46188;52.324;8.032;2022-10-16T01:57:03;10.77;;;6.75;;
60344;SDS011;46188;52.324;8.032;2022-10-16T01:59:31;11.00;;;7.07;;
60344;SDS011;46188;52.324;8.032;2022-10-16T02:02:01;10.32;;;6.40;;
60344;SDS011;46188;52.324;8.032;2022-10-16T02:04:43;11.48;;;7.10;;
60344;SDS011;46188;52.324;8.032;2022-10-16T02:07:10;16.40;;;8.38;;
60344;SDS011;46188;52.324;8.032;2022-10-16T02:09:37;11.77;;;7.60;;
60344;SDS011;46188;52.324;8.032;2022-10-16T02:12:06;14.57;;;8.00;;
60344;SDS011;46188;52.324;8.032;2022-10-16T02:14:37;9.90;;;6.70;;
60344;SDS011;46188;52.324;8.032;2022-10-16T02:17:14;10.13;;;7.18;;
60344;SDS011;46188;52.324;8.032;2022-10-16T02:19:42;17.05;;;9.10;;
60344;SDS011;46188;52.324;8.032;2022-10-16T02:22:09;12.20;;;7.68;;
60344;SDS011;46188;52.324;8.032;2022-10-16T02:25:05;12.15;;;7.47;;
60344;SDS011;46188;52.324;8.032;2022-10-16T02:27:38;16.52;;;8.48;;
60344;SDS011;46188;52.324;8.032;2022-10-16T02:30:24;16.25;;;8.23;;
60344;SDS011;46188;52.324;8.032;2022-10-16T02:32:55;10.73;;;8.23;;
60344;SDS011;46188;52.324;8.032;2022-10-16T02:35:23;15.68;;;8.50;;
60344;SDS011;46188;52.324;8.032;2022-10-16T02:37:50;15.32;;;9.63;;
60344;SDS011;46188;52.324;8.032;2022-10-16T02:40:17;14.05;;;9.50;;
60344;SDS011;46188;52.324;8.032;2022-10-16T02:42:43;15.02;;;9.20;;
60344;SDS011;46188;52.324;8.032;2022-10-16T02:45:10;13.20;;;9.30;;
60344;SDS011;46188;52.324;8.032;2022-10-16T02:47:36;13.25;;;8.40;;
60344;SDS011;46188;52.324;8.032;2022-10-16T02:50:02;14.30;;;8.27;;
60344;SDS011;46188;52.324;8.032;2022-10-16T02:52:29;15.15;;;8.90;;
60344;SDS011;46188;52.324;8.032;2022-10-16T02:54:54;17.25;;;8.93;;
60344;SDS011;46188;52.324;8.032;2022-10-16T02:57:20;13.77;;;9.30;;
60344;SDS011;46188;52.324;8.032;2022-10-16T02:59:45;17.40;;;9.73;;
60344;SDS011;46188;52.324;8.032;2022-10-16T03:02:11;15.50;;;8.38;;
60344;SDS011;46188;52.324;8.032;2022-10-16T03:04:36;12.45;;;8.80;;
60344;SDS011;46188;52.324;8.032;2022-10-16T03:07:02;19.20;;;10.52;;
60344;SDS011;46188;52.324;8.032;2022-10-16T03:09:27;13.88;;;9.00;;
60344;SDS011;46188;52.324;8.032;2022-10-16T03:11:53;13.05;;;8.80;;
60344;SDS011;46188;52.324;8.032;2022-10-16T03:14:18;11.98;;;8.45;;
60344;SDS011;46188;52.324;8.032;2022-10-16T03:16:44;11.98;;;8.85;;
60344;SDS011;46188;52.324;8.032;2022-10-16T03:19:09;15.38;;;9.07;;
60344;SDS011;46188;52.324;8.032;2022-10-16T03:21:35;10.95;;;8.00;;
60344;SDS011;46188;52.324;8.032;2022-10-16T03:24:00;15.02;;;8.18;;
60344;SDS011;46188;52.324;8.032;2022-10-16T03:26:25;12.02;;;8.18;;
60344;SDS011;46188;52.324;8.032;2022-10-16T03:28:51;13.05;;;8.70;;
60344;SDS011;46188;52.324;8.032;2022-10-16T03:31:16;13.63;;;7.60;;
60344;SDS011;46188;52.324;8.032;2022-10-16T03:33:41;12.65;;;7.45;;
60344;SDS011;46188;52.324;8.032;2022-10-16T03:36:07;11.38;;;7.32;;
60344;SDS011;46188;52.324;8.032;2022-10-16T03:38:32;12.88;;;7.13;;
60344;SDS011;46188;52.324;8.032;2022-10-16T03:40:58;14.00;;;7.25;;
60344;SDS011;46188;52.324;8.032;2022-10-16T03:43:23;15.30;;;7.35;;
60344;SDS011;46188;52.324;8.032;2022-10-16T03:45:52;11.07;;;7.25;;
60344;SDS011;46188;52.324;8.032;2022-10-16T03:48:18;13.75;;;8.13;;
60344;SDS011;46188;52.324;8.032;2022-10-16T03:50:44;10.73;;;6.25;;
60344;SDS011;46188;52.324;8.032;2022-10-16T03:53:09;11.40;;;6.78;;
60344;SDS011;46188;52.324;8.032;2022-10-16T03:55:35;12.82;;;6.50;;
60344;SDS011;46188;52.324;8.032;2022-10-16T03:58:00;9.18;;;6.13;;
60344;SDS011;46188;52.324;8.032;2022-10-16T04:00:26;9.40;;;6.50;;
60344;SDS011;46188;52.324;8.032;2022-10-16T04:02:52;8.45;;;6.10;;
60344;SDS011;46188;52.324;8.032;2022-10-16T04:05:17;9.23;;;7.38;;
60344;SDS011;46188;52.324;8.032;2022-10-16T04:07:43;8.20;;;5.93;;
60344;SDS011;46188;52.324;8.032;2022-10-16T04:10:08;8.73;;;6.32;;
60344;SDS011;46188;52.324;8.032;2022-10-16T04:12:34;9.48;;;6.00;;
60344;SDS011;46188;52.324;8.032;2022-10-16T04:14:59;8.20;;;5.32;;
60344;SDS011;46188;52.324;8.032;2022-10-16T04:17:25;10.40;;;5.45;;
60344;SDS011;46188;52.324;8.032;2022-10-16T04:19:50;9.60;;;5.80;;
60344;SDS011;46188;52.324;8.032;2022-10-16T04:22:16;10.48;;;5.72;;
60344;SDS011;46188;52.324;8.032;2022-10-16T04:24:41;10.75;;;5.72;;
60344;SDS011;46188;52.324;8.032;2022-10-16T04:27:06;10.27;;;6.00;;
60344;SDS011;46188;52.324;8.032;2022-10-16T04:29:32;9.30;;;5.40;;
60344;SDS011;46188;52.324;8.032;2022-10-16T04:31:57;9.32;;;5.25;;
60344;SDS011;46188;52.324;8.032;2022-10-16T04:34:23;10.40;;;5.75;;
60344;SDS011;46188;52.324;8.032;2022-10-16T04:36:48;7.80;;;5.32;;
60344;SDS011;46188;52.324;8.032;2022-10-16T04:39:14;8.52;;;4.90;;
60344;SDS011;46188;52.324;8.032;2022-10-16T04:41:40;10.20;;;5.03;;
60344;SDS011;46188;52.324;8.032;2022-10-16T04:44:05;7.13;;;5.25;;
60344;SDS011;46188;52.324;8.032;2022-10-16T04:46:31;8.65;;;5.10;;
60344;SDS011;46188;52.324;8.032;2022-10-16T04:48:56;7.70;;;4.93;;
60344;SDS011;46188;52.324;8.032;2022-10-16T04:51:22;10.10;;;4.18;;
60344;SDS011;46188;52.324;8.032;2022-10-16T04:53:48;7.75;;;4.45;;
60344;SDS011;46188;52.324;8.032;2022-10-16T04:56:13;5.43;;;3.60;;
60344;SDS011;46188;52.324;8.032;2022-10-16T04:58:40;6.10;;;4.05;;
60344;SDS011;46188;52.324;8.032;2022-10-16T05:01:05;6.78;;;4.63;;
60344;SDS011;46188;52.324;8.032;2022-10-16T05:03:31;7.28;;;4.15;;
60344;SDS011;46188;52.324;8.032;2022-10-16T05:05:56;6.63;;;4.22;;
60344;SDS011;46188;52.324;8.032;2022-10-16T05:08:21;4.50;;;3.03;;
60344;SDS011;46188;52.324;8.032;2022-10-16T05:10:47;8.38;;;4.30;;
60344;SDS011;46188;52.324;8.032;2022-10-16T05:13:12;5.18;;;3.92;;
60344;SDS011;46188;52.324;8.032;2022-10-16T05:15:38;5.45;;;3.60;;
60344;SDS011;46188;52.324;8.032;2022-10-16T05:18:04;5.55;;;3.70;;
60344;SDS011;46188;52.324;8.032;2022-10-16T05:20:29;7.45;;;3.47;;
60344;SDS011;46188;52.324;8.032;2022-10-16T05:22:55;6.68;;;3.55;;
60344;SDS011;46188;52.324;8.032;2022-10-16T05:25:20;6.38;;;3.78;;
60344;SDS011;46188;52.324;8.032;2022-10-16T05:27:49;6.72;;;3.53;;
60344;SDS011;46188;52.324;8.032;2022-10-16T05:30:15;5.95;;;3.17;;
60344;SDS011;46188;52.324;8.032;2022-10-16T05:32:41;5.93;;;3.38;;
60344;SDS011;46188;52.324;8.032;2022-10-16T05:35:06;5.45;;;3.70;;
60344;SDS011;46188;52.324;8.032;2022-10-16T05:37:32;6.65;;;3.30;;
60344;SDS011;46188;52.324;8.032;2022-10-16T05:39:58;3.72;;;2.60;;
60344;SDS011;46188;52.324;8.032;2022-10-16T05:42:23;5.25;;;3.38;;
60344;SDS011;46188;52.324;8.032;2022-10-16T05:44:48;8.07;;;3.58;;
60344;SDS011;46188;52.324;8.032;2022-10-16T05:47:14;5.25;;;3.17;;
60344;SDS011;46188;52.324;8.032;2022-10-16T05:49:39;6.13;;;3.63;;
60344;SDS011;46188;52.324;8.032;2022-10-16T05:52:05;5.50;;;3.10;;
60344;SDS011;46188;52.324;8.032;2022-10-16T05:54:30;7.65;;;3.20;;
60344;SDS011;46188;52.324;8.032;2022-10-16T05:56:56;7.68;;;3.10;;
60344;SDS011;46188;52.324;8.032;2022-10-16T05:59:21;4.93;;;3.28;;
60344;SDS011;46188;52.324;8.032;2022-10-16T06:01:46;5.13;;;3.20;;
60344;SDS011;46188;52.324;8.032;2022-10-16T06:04:12;4.53;;;3.35;;
60344;SDS011;46188;52.324;8.032;2022-10-16T06:06:37;4.38;;;2.88;;
60344;SDS011;46188;52.324;8.032;2022-10-16T06:09:03;7.93;;;3.17;;
60344;SDS011;46188;52.324;8.032;2022-10-16T06:11:29;12.00;;;3.80;;
60344;SDS011;46188;52.324;8.032;2022-10-16T06:13:57;4.30;;;3.08;;
60344;SDS011;46188;52.324;8.032;2022-10-16T06:16:26;5.30;;;2.80;;
60344;SDS011;46188;52.324;8.032;2022-10-16T06:18:53;5.45;;;3.15;;
60344;SDS011;46188;52.324;8.032;2022-10-16T06:21:21;5.13;;;3.08;;
60344;SDS011;46188;52.324;8.032;2022-10-16T06:23:49;5.53;;;2.97;;
60344;SDS011;46188;52.324;8.032;2022-10-16T06:26:16;4.28;;;2.88;;
60344;SDS011;46188;52.324;8.032;2022-10-16T06:28:43;4.15;;;3.00;;
60344;SDS011;46188;52.324;8.032;2022-10-16T06:31:09;6.38;;;3.20;;
60344;SDS011;46188;52.324;8.032;2022-10-16T06:33:36;3.42;;;2.70;;
60344;SDS011;46188;52.324;8.032;2022-10-16T06:36:03;4.22;;;3.03;;
60344;SDS011;46188;52.324;8.032;2022-10-16T06:38:30;6.05;;;3.40;;
60344;SDS011;46188;52.324;8.032;2022-10-16T06:40:56;10.10;;;3.28;;
60344;SDS011;46188;52.324;8.032;2022-10-16T06:43:22;4.03;;;2.92;;
60344;SDS011;46188;52.324;8.032;2022-10-16T06:45:54;4.97;;;2.67;;
60344;SDS011;46188;52.324;8.032;2022-10-16T06:48:20;5.90;;;3.22;;
60344;SDS011;46188;52.324;8.032;2022-10-16T06:51:00;3.78;;;2.90;;
60344;SDS011;46188;52.324;8.032;2022-10-16T06:53:30;5.32;;;2.60;;
60344;SDS011;46188;52.324;8.032;2022-10-16T06:56:01;3.75;;;2.72;;
60344;SDS011;46188;52.324;8.032;2022-10-16T06:58:35;4.55;;;2.55;;
60344;SDS011;46188;52.324;8.032;2022-10-16T07:01:00;5.30;;;2.38;;
60344;SDS011;46188;52.324;8.032;2022-10-16T07:03:26;5.70;;;2.55;;
60344;SDS011;46188;52.324;8.032;2022-10-16T07:05:51;4.50;;;2.75;;
60344;SDS011;46188;52.324;8.032;2022-10-16T07:08:17;7.65;;;2.88;;
60344;SDS011;46188;52.324;8.032;2022-10-16T07:10:42;4.57;;;3.10;;
60344;SDS011;46188;52.324;8.032;2022-10-16T07:13:07;6.15;;;3.20;;
60344;SDS011;46188;52.324;8.032;2022-10-16T07:15:33;5.07;;;2.80;;
60344;SDS011;46188;52.324;8.032;2022-10-16T07:17:59;4.05;;;2.75;;
60344;SDS011;46188;52.324;8.032;2022-10-16T07:20:24;7.15;;;3.30;;
60344;SDS011;46188;52.324;8.032;2022-10-16T07:22:50;5.68;;;3.15;;
60344;SDS011;46188;52.324;8.032;2022-10-16T07:25:16;6.30;;;3.35;;
60344;SDS011;46188;52.324;8.032;2022-10-16T07:27:42;4.00;;;2.95;;
60344;SDS011;46188;52.324;8.032;2022-10-16T07:30:07;6.20;;;3.50;;
60344;SDS011;46188;52.324;8.032;2022-10-16T07:32:33;11.23;;;4.07;;
60344;SDS011;46188;52.324;8.032;2022-10-16T07:34:58;6.05;;;3.88;;
60344;SDS011;46188;52.324;8.032;2022-10-16T07:37:24;5.47;;;3.50;;
60344;SDS011;46188;52.324;8.032;2022-10-16T07:39:49;6.55;;;3.45;;
60344;SDS011;46188;52.324;8.032;2022-10-16T07:42:15;5.10;;;2.85;;
60344;SDS011;46188;52.324;8.032;2022-10-16T07:44:40;5.55;;;2.90;;
60344;SDS011;46188;52.324;8.032;2022-10-16T07:47:06;4.03;;;2.70;;
60344;SDS011;46188;52.324;8.032;2022-10-16T07:49:31;4.70;;;3.30;;
60344;SDS011;46188;52.324;8.032;2022-10-16T07:51:57;5.10;;;2.53;;
60344;SDS011;46188;52.324;8.032;2022-10-16T07:54:22;4.43;;;2.63;;
60344;SDS011;46188;52.324;8.032;2022-10-16T07:56:47;5.53;;;2.55;;
60344;SDS011;46188;52.324;8.032;2022-10-16T07:59:13;5.95;;;2.63;;
60344;SDS011;46188;52.324;8.032;2022-10-16T08:01:38;5.03;;;2.95;;
60344;SDS011;46188;52.324;8.032;2022-10-16T08:04:04;7.00;;;2.92;;
60344;SDS011;46188;52.324;8.032;2022-10-16T08:06:30;5.53;;;2.67;;
60344;SDS011;46188;52.324;8.032;2022-10-16T08:09:01;3.28;;;2.40;;
60344;SDS011;46188;52.324;8.032;2022-10-16T08:11:27;4.70;;;3.35;;
60344;SDS011;46188;52.324;8.032;2022-10-16T08:13:52;4.47;;;2.30;;
60344;SDS011;46188;52.324;8.032;2022-10-16T08:16:17;4.30;;;2.33;;
60344;SDS011;46188;52.324;8.032;2022-10-16T08:18:43;4.53;;;2.40;;
60344;SDS011;46188;52.324;8.032;2022-10-16T08:21:12;6.22;;;2.40;;
60344;SDS011;46188;52.324;8.032;2022-10-16T08:23:39;4.30;;;2.03;;
60344;SDS011;46188;52.324;8.032;2022-10-16T08:26:05;6.88;;;1.95;;
60344;SDS011;46188;52.324;8.032;2022-10-16T08:28:32;3.75;;;2.15;;
60344;SDS011;46188;52.324;8.032;2022-10-16T08:31:11;5.78;;;2.28;;
60344;SDS011;46188;52.324;8.032;2022-10-16T08:33:39;2.90;;;2.35;;
60344;SDS011;46188;52.324;8.032;2022-10-16T08:36:06;4.55;;;2.20;;
60344;SDS011;46188;52.324;8.032;2022-10-16T08:38:31;4.85;;;1.90;;
60344;SDS011;46188;52.324;8.032;2022-10-16T08:49:03;4.15;;;2.08;;
60344;SDS011;46188;52.324;8.032;2022-10-16T08:51:32;5.30;;;1.85;;
60344;SDS011;46188;52.324;8.032;2022-10-16T08:54:04;6.45;;;2.10;;
60344;SDS011;46188;52.324;8.032;2022-10-16T08:56:30;4.07;;;1.83;;
60344;SDS011;46188;52.324;8.032;2022-10-16T08:58:57;3.85;;;2.10;;
60344;SDS011;46188;52.324;8.032;2022-10-16T09:01:24;4.72;;;2.22;;
60344;SDS011;46188;52.324;8.032;2022-10-16T09:06:50;3.63;;;1.92;;
60344;SDS011;46188;52.324;8.032;2022-10-16T09:12:05;4.25;;;1.85;;
60344;SDS011;46188;52.324;8.032;2022-10-16T09:20:13;2.42;;;1.40;;
60344;SDS011;46188;52.324;8.032;2022-10-16T09:22:44;4.32;;;1.60;;
60344;SDS011;46188;52.324;8.032;2022-10-16T09:25:11;3.10;;;1.33;;
60344;SDS011;46188;52.324;8.032;2022-10-16T09:27:41;3.55;;;1.52;;
60344;SDS011;46188;52.324;8.032;2022-10-16T09:30:16;3.85;;;1.90;;
60344;SDS011;46188;52.324;8.032;2022-10-16T09:32:43;3.20;;;1.48;;
60344;SDS011;46188;52.324;8.032;2022-10-16T09:35:13;5.05;;;1.40;;
60344;SDS011;46188;52.324;8.032;2022-10-16T09:37:42;5.80;;;1.50;;
60344;SDS011;46188;52.324;8.032;2022-10-16T09:40:23;3.65;;;1.77;;
60344;SDS011;46188;52.324;8.032;2022-10-16T09:43:06;3.13;;;1.58;;
60344;SDS011;46188;52.324;8.032;2022-10-16T09:45:52;3.67;;;1.50;;
60344;SDS011;46188;52.324;8.032;2022-10-16T09:56:38;3.88;;;1.50;;
60344;SDS011;46188;52.324;8.032;2022-10-16T09:59:12;6.45;;;1.77;;
60344;SDS011;46188;52.324;8.032;2022-10-16T10:01:39;3.65;;;1.30;;
60344;SDS011;46188;52.324;8.032;2022-10-16T10:04:07;3.97;;;1.50;;
60344;SDS011;46188;52.324;8.032;2022-10-16T10:06:34;5.85;;;1.67;;
60344;SDS011;46188;52.324;8.032;2022-10-16T10:11:54;5.03;;;1.45;;
60344;SDS011;46188;52.324;8.032;2022-10-16T10:14:44;4.53;;;1.30;;
60344;SDS011;46188;52.324;8.032;2022-10-16T10:17:15;4.82;;;1.63;;
60344;SDS011;46188;52.324;8.032;2022-10-16T10:19:56;4.65;;;1.25;;
60344;SDS011;46188;52.324;8.032;2022-10-16T10:22:24;6.78;;;1.40;;
60344;SDS011;46188;52.324;8.032;2022-10-16T10:30:36;3.33;;;1.77;;
60344;SDS011;46188;52.324;8.032;2022-10-16T10:33:12;5.53;;;1.55;;
60344;SDS011;46188;52.324;8.032;2022-10-16T10:41:19;2.95;;;1.40;;
60344;SDS011;46188;52.324;8.032;2022-10-16T10:46:57;3.95;;;1.20;;
60344;SDS011;46188;52.324;8.032;2022-10-16T10:49:39;3.63;;;1.50;;
60344;SDS011;46188;52.324;8.032;2022-10-16T11:06:41;2.42;;;0.98;;
60344;SDS011;46188;52.324;8.032;2022-10-16T11:09:13;1.73;;;1.08;;
60344;SDS011;46188;52.324;8.032;2022-10-16T11:11:53;3.20;;;1.20;;
60344;SDS011;46188;52.324;8.032;2022-10-16T11:14:28;4.20;;;1.20;;
60344;SDS011;46188;52.324;8.032;2022-10-16T11:17:05;2.15;;;1.08;;
60344;SDS011;46188;52.324;8.032;2022-10-16T11:19:38;3.28;;;1.30;;
60344;SDS011;46188;52.324;8.032;2022-10-16T11:24:58;3.15;;;1.02;;
60344;SDS011;46188;52.324;8.032;2022-10-16T11:27:37;4.28;;;1.13;;
60344;SDS011;46188;52.324;8.032;2022-10-16T11:30:11;4.05;;;1.30;;
60344;SDS011;46188;52.324;8.032;2022-10-16T11:32:49;2.90;;;1.27;;
60344;SDS011;46188;52.324;8.032;2022-10-16T11:35:43;3.95;;;1.60;;
60344;SDS011;46188;52.324;8.032;2022-10-16T11:38:26;3.03;;;1.52;;
60344;SDS011;46188;52.324;8.032;2022-10-16T11:40:54;3.40;;;1.85;;
60344;SDS011;46188;52.324;8.032;2022-10-16T11:43:34;7.60;;;1.63;;
60344;SDS011;46188;52.324;8.032;2022-10-16T11:46:09;4.30;;;1.92;;
60344;SDS011;46188;52.324;8.032;2022-10-16T11:48:49;7.45;;;2.00;;
60344;SDS011;46188;52.324;8.032;2022-10-16T11:51:29;4.22;;;1.85;;
60344;SDS011;46188;52.324;8.032;2022-10-16T11:54:08;8.05;;;2.30;;
60344;SDS011;46188;52.324;8.032;2022-10-16T11:56:38;4.63;;;2.00;;
60344;SDS011;46188;52.324;8.032;2022-10-16T11:59:07;6.60;;;2.80;;
60344;SDS011;46188;52.324;8.032;2022-10-16T12:01:49;3.67;;;2.00;;
60344;SDS011;46188;52.324;8.032;2022-10-16T12:06:57;7.43;;;2.90;;
60344;SDS011;46188;52.324;8.032;2022-10-16T12:09:29;4.85;;;2.25;;
60344;SDS011;46188;52.324;8.032;2022-10-16T12:11:57;6.43;;;2.20;;
60344;SDS011;46188;52.324;8.032;2022-10-16T12:16:53;6.97;;;2.50;;
60344;SDS011;46188;52.324;8.032;2022-10-16T12:19:21;10.45;;;2.97;;
60344;SDS011;46188;52.324;8.032;2022-10-16T12:21:48;5.85;;;2.33;;
60344;SDS011;46188;52.324;8.032;2022-10-16T12:27:02;5.40;;;2.30;;
60344;SDS011;46188;52.324;8.032;2022-10-16T15:46:08;4.82;;;1.38;;
60344;SDS011;46188;52.324;8.032;2022-10-16T15:48:36;6.93;;;2.00;;
60344;SDS011;46188;52.324;8.032;2022-10-16T15:51:04;6.25;;;2.00;;
60344;SDS011;46188;52.324;8.032;2022-10-16T15:53:31;6.60;;;2.47;;
60344;SDS011;46188;52.324;8.032;2022-10-16T15:55:56;11.85;;;2.30;;
60344;SDS011;46188;52.324;8.032;2022-10-16T15:58:22;4.20;;;1.77;;
60344;SDS011;46188;52.324;8.032;2022-10-16T16:00:55;4.90;;;1.48;;
60344;SDS011;46188;52.324;8.032;2022-10-16T16:03:21;3.80;;;1.65;;
60344;SDS011;46188;52.324;8.032;2022-10-16T16:05:46;5.60;;;1.67;;
60344;SDS011;46188;52.324;8.032;2022-10-16T16:08:11;6.90;;;2.05;;
60344;SDS011;46188;52.324;8.032;2022-10-16T16:10:37;7.07;;;1.80;;
60344;SDS011;46188;52.324;8.032;2022-10-16T16:13:02;7.53;;;1.77;;
60344;SDS011;46188;52.324;8.032;2022-10-16T16:15:28;5.68;;;2.05;;
60344;SDS011;46188;52.324;8.032;2022-10-16T16:17:53;5.22;;;1.88;;
60344;SDS011;46188;52.324;8.032;2022-10-16T16:20:19;5.43;;;2.10;;
60344;SDS011;46188;52.324;8.032;2022-10-16T16:22:44;7.57;;;2.25;;
60344;SDS011;46188;52.324;8.032;2022-10-16T16:25:09;7.55;;;1.90;;
60344;SDS011;46188;52.324;8.032;2022-10-16T16:27:35;7.05;;;1.75;;
60344;SDS011;46188;52.324;8.032;2022-10-16T16:30:03;10.30;;;2.17;;
60344;SDS011;46188;52.324;8.032;2022-10-16T16:32:30;4.93;;;1.70;;
60344;SDS011;46188;52.324;8.032;2022-10-16T16:34:55;9.00;;;2.33;;
60344;SDS011;46188;52.324;8.032;2022-10-16T16:37:21;11.02;;;2.28;;
60344;SDS011;46188;52.324;8.032;2022-10-16T16:39:47;6.72;;;1.67;;
60344;SDS011;46188;52.324;8.032;2022-10-16T16:42:12;4.88;;;1.50;;
60344;SDS011;46188;52.324;8.032;2022-10-16T16:44:38;8.98;;;2.50;;
60344;SDS011;46188;52.324;8.032;2022-10-16T16:47:04;7.68;;;1.80;;
60344;SDS011;46188;52.324;8.032;2022-10-16T16:49:30;6.25;;;1.90;;
60344;SDS011;46188;52.324;8.032;2022-10-16T16:51:55;5.70;;;2.05;;
60344;SDS011;46188;52.324;8.032;2022-10-16T16:54:21;4.97;;;2.35;;
60344;SDS011;46188;52.324;8.032;2022-10-16T16:56:46;8.93;;;3.15;;
60344;SDS011;46188;52.324;8.032;2022-10-16T16:59:16;5.57;;;2.33;;
60344;SDS011;46188;52.324;8.032;2022-10-16T17:01:44;9.75;;;2.10;;
60344;SDS011;46188;52.324;8.032;2022-10-16T17:04:10;5.32;;;2.17;;
60344;SDS011;46188;52.324;8.032;2022-10-16T17:06:35;7.25;;;2.10;;
60344;SDS011;46188;52.324;8.032;2022-10-16T17:09:02;6.07;;;2.15;;
60344;SDS011;46188;52.324;8.032;2022-10-16T17:11:29;5.93;;;1.70;;
60344;SDS011;46188;52.324;8.032;2022-10-16T17:13:55;4.90;;;1.52;;
60344;SDS011;46188;52.324;8.032;2022-10-16T17:16:23;5.50;;;1.73;;
60344;SDS011;46188;52.324;8.032;2022-10-16T17:18:51;6.85;;;1.88;;
60344;SDS011;46188;52.324;8.032;2022-10-16T17:21:18;7.50;;;2.55;;
60344;SDS011;46188;52.324;8.032;2022-10-16T17:23:44;7.75;;;2.33;;
60344;SDS011;46188;52.324;8.032;2022-10-16T17:26:11;5.07;;;2.00;;
60344;SDS011;46188;52.324;8.032;2022-10-16T17:28:38;5.82;;;2.53;;
60344;SDS011;46188;52.324;8.032;2022-10-16T17:33:33;7.07;;;1.92;;
60344;SDS011;46188;52.324;8.032;2022-10-16T17:35:58;5.07;;;1.40;;
60344;SDS011;46188;52.324;8.032;2022-10-16T17:38:24;2.13;;;1.38;;
60344;SDS011;46188;52.324;8.032;2022-10-16T17:40:49;4.15;;;1.70;;
60344;SDS011;46188;52.324;8.032;2022-10-16T17:43:14;3.97;;;1.60;;
60344;SDS011;46188;52.324;8.032;2022-10-16T17:45:40;5.82;;;2.05;;
60344;SDS011;46188;52.324;8.032;2022-10-16T17:48:06;3.83;;;1.85;;
60344;SDS011;46188;52.324;8.032;2022-10-16T17:50:32;7.38;;;2.17;;
60344;SDS011;46188;52.324;8.032;2022-10-16T17:52:57;9.65;;;2.33;;
60344;SDS011;46188;52.324;8.032;2022-10-16T17:55:22;10.02;;;3.63;;
60344;SDS011;46188;52.324;8.032;2022-10-16T17:57:48;6.60;;;2.85;;
60344;SDS011;46188;52.324;8.032;2022-10-16T18:00:13;8.18;;;2.33;;
60344;SDS011;46188;52.324;8.032;2022-10-16T18:02:39;5.78;;;2.80;;
60344;SDS011;46188;52.324;8.032;2022-10-16T18:05:07;8.85;;;2.72;;
60344;SDS011;46188;52.324;8.032;2022-10-16T18:07:33;6.90;;;3.00;;
60344;SDS011;46188;52.324;8.032;2022-10-16T18:09:59;8.02;;;3.20;;
60344;SDS011;46188;52.324;8.032;2022-10-16T18:12:25;4.07;;;2.60;;
60344;SDS011;46188;52.324;8.032;2022-10-16T18:14:51;7.20;;;3.10;;
60344;SDS011;46188;52.324;8.032;2022-10-16T18:17:19;6.25;;;3.35;;
60344;SDS011;46188;52.324;8.032;2022-10-16T18:19:45;10.57;;;3.58;;
60344;SDS011;46188;52.324;8.032;2022-10-16T18:22:10;6.10;;;3.65;;
60344;SDS011;46188;52.324;8.032;2022-10-16T18:24:36;7.93;;;2.80;;
60344;SDS011;46188;52.324;8.032;2022-10-16T18:27:01;6.28;;;2.55;;
60344;SDS011;46188;52.324;8.032;2022-10-16T18:29:26;7.13;;;2.42;;
60344;SDS011;46188;52.324;8.032;2022-10-16T18:31:52;6.97;;;2.20;;
60344;SDS011;46188;52.324;8.032;2022-10-16T18:34:18;6.30;;;3.30;;
60344;SDS011;46188;52.324;8.032;2022-10-16T18:36:44;4.32;;;2.35;;
60344;SDS011;46188;52.324;8.032;2022-10-16T18:39:10;4.85;;;2.50;;
60344;SDS011;46188;52.324;8.032;2022-10-16T18:41:37;7.47;;;3.05;;
60344;SDS011;46188;52.324;8.032;2022-10-16T18:44:04;12.85;;;3.63;;
60344;SDS011;46188;52.324;8.032;2022-10-16T18:46:30;9.73;;;3.75;;
60344;SDS011;46188;52.324;8.032;2022-10-16T18:48:56;9.02;;;3.40;;
60344;SDS011;46188;52.324;8.032;2022-10-16T18:53:49;11.55;;;4.10;;
60344;SDS011;46188;52.324;8.032;2022-10-16T18:56:16;8.80;;;5.07;;
60344;SDS011;46188;52.324;8.032;2022-10-16T18:58:44;14.35;;;6.38;;
60344;SDS011;46188;52.324;8.032;2022-10-16T19:01:13;10.00;;;5.30;;
60344;SDS011;46188;52.324;8.032;2022-10-16T19:03:40;11.82;;;5.95;;
60344;SDS011;46188;52.324;8.032;2022-10-16T19:06:07;12.57;;;7.57;;
60344;SDS011;46188;52.324;8.032;2022-10-16T19:08:35;9.13;;;4.93;;
60344;SDS011;46188;52.324;8.032;2022-10-16T19:11:06;10.43;;;4.93;;
60344;SDS011;46188;52.324;8.032;2022-10-16T19:13:34;11.63;;;5.75;;
60344;SDS011;46188;52.324;8.032;2022-10-16T19:15:59;11.00;;;5.55;;
60344;SDS011;46188;52.324;8.032;2022-10-16T19:18:26;9.10;;;5.60;;
60344;SDS011;46188;52.324;8.032;2022-10-16T19:20:52;9.05;;;4.85;;
60344;SDS011;46188;52.324;8.032;2022-10-16T19:23:18;8.05;;;5.68;;
60344;SDS011;46188;52.324;8.032;2022-10-16T19:25:44;8.48;;;5.10;;
60344;SDS011;46188;52.324;8.032;2022-10-16T19:28:09;9.20;;;5.55;;
60344;SDS011;46188;52.324;8.032;2022-10-16T19:30:39;8.15;;;4.95;;
60344;SDS011;46188;52.324;8.032;2022-10-16T19:33:06;7.72;;;5.00;;
60344;SDS011;46188;52.324;8.032;2022-10-16T19:35:32;11.27;;;5.53;;
60344;SDS011;46188;52.324;8.032;2022-10-16T19:37:58;8.25;;;5.03;;
60344;SDS011;46188;52.324;8.032;2022-10-16T19:40:25;10.38;;;4.88;;
60344;SDS011;46188;52.324;8.032;2022-10-16T19:42:50;7.22;;;4.93;;